Time;durP1;ratioP1;P1;durP2;ratioP2;P2;SDS_P1;SDS_P2;PMS_P1;PMS_P2;Temp;Humidity;BMP_temperature;BMP_pressure;BME280_temperature;BME280_humidity;BME280_pressure;Samples;Min_cycle;Max_cycle;Signal;HPM_P1;HPM_P2
2023/04/08 00:00:27;;;;;;;18.42;16.27;;;8.90;99.90;;;;;;5090460;28;20438;-69
2023/04/08 00:02:54;;;;;;;18.70;16.80;;;8.90;99.90;;;;;;5087274;28;20863;-68
2023/04/08 00:05:21;;;;;;;19.23;16.42;;;8.90;99.90;;;;;;5130398;22;20438;-68
2023/04/08 00:07:47;;;;;;;19.85;15.93;;;8.90;99.90;;;;;;5129044;27;20786;-68
2023/04/08 00:10:14;;;;;;;18.60;16.60;;;8.90;99.90;;;;;;5128218;27;20410;-69
2023/04/08 00:12:42;;;;;;;20.60;16.55;;;8.90;99.90;;;;;;5114244;27;20427;-68
2023/04/08 00:15:10;;;;;;;19.15;16.48;;;8.90;99.90;;;;;;5109859;27;20577;-68
2023/04/08 00:17:36;;;;;;;17.85;15.98;;;8.90;99.90;;;;;;5099071;28;20908;-68
2023/04/08 00:20:04;;;;;;;18.80;16.80;;;8.90;99.90;;;;;;5107743;28;20783;-68
2023/04/08 00:22:31;;;;;;;21.63;16.23;;;8.90;99.90;;;;;;5107149;27;20910;-67
2023/04/08 00:24:58;;;;;;;20.75;16.40;;;8.80;99.90;;;;;;5109857;28;20945;-68
2023/04/08 00:27:25;;;;;;;19.40;16.42;;;8.80;99.90;;;;;;5110458;27;20431;-69
2023/04/08 00:29:53;;;;;;;18.40;16.50;;;8.80;99.90;;;;;;5108836;28;20415;-68
2023/04/08 00:32:20;;;;;;;18.35;16.45;;;8.80;99.90;;;;;;5106513;27;20527;-68
2023/04/08 00:34:47;;;;;;;19.73;17.63;;;8.80;99.90;;;;;;5107740;27;20507;-68
2023/04/08 00:37:13;;;;;;;18.73;16.73;;;8.80;99.90;;;;;;5108740;28;20408;-68
2023/04/08 00:39:40;;;;;;;20.00;17.45;;;8.80;99.90;;;;;;5109803;28;20423;-70
2023/04/08 00:42:07;;;;;;;19.95;16.65;;;8.80;99.90;;;;;;5107652;28;20435;-70
2023/04/08 00:44:33;;;;;;;18.33;16.35;;;8.80;99.90;;;;;;5107630;28;20427;-70
2023/04/08 00:47:03;;;;;;;20.42;17.52;;;8.80;99.90;;;;;;5107860;28;20501;-70
2023/04/08 00:49:31;;;;;;;19.90;17.52;;;8.80;99.90;;;;;;5107181;28;20928;-70
2023/04/08 00:51:59;;;;;;;20.88;17.90;;;8.80;99.90;;;;;;5107492;28;20427;-70
2023/04/08 00:54:26;;;;;;;21.27;17.20;;;8.80;99.90;;;;;;5107084;28;20485;-70
2023/04/08 00:56:52;;;;;;;23.03;18.07;;;8.80;99.90;;;;;;5108322;27;20522;-69
2023/04/08 00:59:19;;;;;;;24.70;18.23;;;8.80;99.90;;;;;;5105875;28;20412;-70
2023/04/08 01:01:55;;;;;;;21.15;17.98;;;8.80;99.90;;;;;;5107456;28;20440;-70
2023/04/08 01:04:29;;;;;;;21.02;18.83;;;8.80;99.90;;;;;;5112597;27;20426;-70
2023/04/08 01:07:03;;;;;;;22.52;18.02;;;8.80;99.90;;;;;;5128801;27;20414;-69
2023/04/08 01:09:32;;;;;;;22.23;19.08;;;8.80;99.90;;;;;;5129054;27;20480;-70
2023/04/08 01:12:02;;;;;;;22.08;19.13;;;8.80;99.90;;;;;;5128343;27;20936;-69
2023/04/08 01:14:31;;;;;;;21.38;17.65;;;8.80;99.90;;;;;;5127385;27;20410;-70
2023/04/08 01:16:59;;;;;;;21.02;18.80;;;8.80;99.90;;;;;;5126199;27;20430;-69
2023/04/08 01:19:31;;;;;;;22.10;19.17;;;8.80;99.90;;;;;;5128428;27;20917;-70
2023/04/08 01:22:05;;;;;;;24.20;19.73;;;8.90;99.90;;;;;;5127328;27;20426;-70
2023/04/08 01:24:36;;;;;;;23.10;19.08;;;8.80;99.90;;;;;;5127450;27;20503;-70
2023/04/08 01:27:06;;;;;;;25.08;19.55;;;8.80;99.90;;;;;;5123346;27;20452;-69
2023/04/08 01:29:34;;;;;;;22.10;18.40;;;8.80;99.90;;;;;;5126537;27;20422;-69
2023/04/08 01:32:02;;;;;;;24.92;20.23;;;8.70;99.90;;;;;;5125021;27;20431;-69
2023/04/08 01:34:30;;;;;;;22.92;18.30;;;8.80;99.90;;;;;;5127917;27;20442;-70
2023/04/08 01:36:58;;;;;;;24.30;18.90;;;8.70;99.90;;;;;;5125708;27;20441;-69
2023/04/08 01:39:25;;;;;;;23.42;18.83;;;8.70;99.90;;;;;;5127416;27;20819;-70
2023/04/08 01:41:54;;;;;;;20.13;17.43;;;8.70;99.90;;;;;;5128849;27;20927;-70
2023/04/08 01:44:24;;;;;;;21.00;17.95;;;8.70;99.90;;;;;;5122469;27;20886;-69
2023/04/08 01:46:52;;;;;;;22.48;18.52;;;8.70;99.90;;;;;;5125786;27;20430;-69
2023/04/08 01:49:20;;;;;;;22.92;19.08;;;8.70;99.90;;;;;;5126016;27;20427;-70
2023/04/08 01:51:48;;;;;;;21.83;17.88;;;8.70;99.90;;;;;;5125931;27;20419;-70
2023/04/08 01:54:15;;;;;;;19.60;17.60;;;8.70;99.90;;;;;;5126123;27;20429;-69
2023/04/08 01:56:44;;;;;;;19.83;17.73;;;8.70;99.90;;;;;;5127854;27;20410;-69
2023/04/08 01:59:15;;;;;;;20.10;18.00;;;8.70;99.90;;;;;;5125698;27;20422;-69
2023/04/08 02:01:45;;;;;;;23.42;18.30;;;8.70;99.90;;;;;;5125414;27;20426;-69
2023/04/08 02:04:13;;;;;;;22.20;19.00;;;8.70;99.90;;;;;;5127003;27;20410;-70
2023/04/08 02:06:40;;;;;;;22.80;18.33;;;8.80;99.90;;;;;;5127189;27;20407;-70
2023/04/08 02:09:07;;;;;;;24.00;19.95;;;8.70;99.90;;;;;;5127728;27;20463;-70
2023/04/08 02:11:33;;;;;;;27.08;19.83;;;8.80;99.90;;;;;;5128484;27;20415;-69
2023/04/08 02:14:00;;;;;;;25.52;20.38;;;8.80;99.90;;;;;;5125909;27;20601;-69
2023/04/08 02:16:33;;;;;;;24.70;20.85;;;8.70;99.90;;;;;;5125657;27;20418;-69
2023/04/08 02:19:07;;;;;;;26.58;20.70;;;8.70;99.90;;;;;;5125566;28;20422;-70
2023/04/08 02:21:39;;;;;;;23.93;19.30;;;8.70;99.90;;;;;;5127960;28;20437;-70
2023/04/08 02:24:07;;;;;;;22.48;19.55;;;8.70;99.90;;;;;;5126008;28;20407;-69
2023/04/08 02:26:37;;;;;;;23.33;19.43;;;8.70;99.90;;;;;;5127959;28;20420;-70
2023/04/08 02:29:05;;;;;;;26.55;19.35;;;8.60;99.90;;;;;;5124716;27;20422;-70
2023/04/08 02:31:33;;;;;;;26.48;20.30;;;8.60;99.90;;;;;;5127439;27;20448;-70
2023/04/08 02:34:02;;;;;;;21.65;18.08;;;8.60;99.90;;;;;;5125170;27;20475;-70
2023/04/08 02:36:31;;;;;;;26.90;20.27;;;8.60;99.90;;;;;;5127284;28;20407;-70
2023/04/08 02:38:57;;;;;;;23.40;21.00;;;8.60;99.90;;;;;;5127382;28;20422;-70
2023/04/08 02:41:28;;;;;;;22.48;20.05;;;8.50;99.90;;;;;;5128110;27;20434;-69
2023/04/08 02:43:55;;;;;;;26.17;21.52;;;8.50;99.90;;;;;;5119315;27;20426;-69
2023/04/08 02:46:22;;;;;;;23.10;20.70;;;8.60;99.90;;;;;;5121201;27;20426;-69
2023/04/08 02:48:49;;;;;;;23.85;20.98;;;8.60;99.90;;;;;;5125979;28;20856;-70
2023/04/08 02:51:17;;;;;;;25.17;21.00;;;8.60;99.90;;;;;;5126736;28;20425;-69
2023/04/08 02:53:43;;;;;;;24.17;21.10;;;8.50;99.90;;;;;;5125473;27;20428;-70
2023/04/08 02:56:11;;;;;;;26.48;21.08;;;8.60;99.90;;;;;;5126579;28;20723;-70
2023/04/08 02:58:37;;;;;;;25.35;20.63;;;8.50;99.90;;;;;;5124715;27;20418;-70
2023/04/08 03:01:05;;;;;;;24.45;21.33;;;8.50;99.90;;;;;;5126116;27;20431;-69
2023/04/08 03:03:32;;;;;;;24.50;21.55;;;8.40;99.90;;;;;;5124633;28;20491;-70
2023/04/08 03:05:59;;;;;;;29.17;22.90;;;8.50;99.90;;;;;;5123841;28;20432;-69
2023/04/08 03:08:27;;;;;;;26.00;21.00;;;8.50;99.90;;;;;;5128151;28;20811;-70
2023/04/08 03:10:54;;;;;;;25.15;22.15;;;8.50;99.90;;;;;;5125770;28;20426;-70
2023/04/08 03:13:20;;;;;;;28.52;23.38;;;8.50;99.90;;;;;;5123979;27;20760;-70
2023/04/08 03:15:47;;;;;;;24.52;21.70;;;8.50;99.90;;;;;;5125888;27;20426;-70
2023/04/08 03:18:14;;;;;;;26.88;21.98;;;8.50;99.90;;;;;;5127665;27;20407;-70
2023/04/08 03:20:41;;;;;;;28.40;23.33;;;8.50;99.90;;;;;;5129770;27;20845;-70
2023/04/08 03:23:07;;;;;;;26.33;21.85;;;8.50;99.90;;;;;;5128993;27;20439;-69
2023/04/08 03:25:35;;;;;;;25.75;21.77;;;8.40;99.90;;;;;;5129996;27;20919;-69
2023/04/08 03:28:02;;;;;;;25.98;23.15;;;8.40;99.90;;;;;;5128477;27;20421;-69
2023/04/08 03:30:29;;;;;;;29.10;23.10;;;8.50;99.90;;;;;;5129321;27;20446;-70
2023/04/08 03:32:55;;;;;;;28.35;22.63;;;8.50;99.90;;;;;;5129144;27;20418;-70
2023/04/08 03:35:22;;;;;;;26.08;22.90;;;8.50;99.90;;;;;;5130483;27;20421;-69
2023/04/08 03:37:49;;;;;;;30.95;23.80;;;8.50;99.90;;;;;;5128986;27;20426;-70
2023/04/08 03:40:16;;;;;;;25.92;23.17;;;8.50;99.90;;;;;;5127775;27;20468;-69
2023/04/08 03:42:44;;;;;;;25.83;22.58;;;8.50;99.90;;;;;;5127793;27;20426;-70
2023/04/08 03:45:11;;;;;;;28.35;23.60;;;8.50;99.90;;;;;;5129231;27;20420;-70
2023/04/08 03:47:38;;;;;;;26.92;23.27;;;8.50;99.90;;;;;;5130673;27;20410;-70
2023/04/08 03:50:05;;;;;;;30.30;24.02;;;8.50;99.90;;;;;;5130034;27;20427;-71
2023/04/08 03:52:32;;;;;;;29.55;24.67;;;8.40;99.90;;;;;;5128577;27;20414;-70
2023/04/08 03:54:58;;;;;;;28.90;23.73;;;8.40;99.90;;;;;;5129568;27;20829;-70
2023/04/08 03:57:25;;;;;;;29.90;24.42;;;8.40;99.90;;;;;;5127542;27;20422;-70
2023/04/08 03:59:53;;;;;;;28.38;24.95;;;8.40;99.90;;;;;;5128665;27;20422;-69
2023/04/08 04:02:20;;;;;;;30.10;23.45;;;8.40;99.90;;;;;;5129156;27;20430;-69
2023/04/08 04:04:47;;;;;;;27.27;23.23;;;8.40;99.90;;;;;;5124843;27;20987;-70
2023/04/08 04:07:14;;;;;;;31.25;24.33;;;8.40;99.90;;;;;;5125158;27;20437;-70
2023/04/08 04:09:41;;;;;;;31.10;24.50;;;8.40;99.90;;;;;;5129298;27;20514;-69
2023/04/08 04:12:07;;;;;;;31.13;24.58;;;8.40;99.90;;;;;;5125624;27;20534;-70
2023/04/08 04:14:34;;;;;;;29.02;24.15;;;8.40;99.90;;;;;;5127416;27;20427;-70
2023/04/08 04:17:02;;;;;;;30.20;23.90;;;8.40;99.90;;;;;;5128403;27;20425;-70
2023/04/08 04:19:30;;;;;;;30.98;24.38;;;8.40;99.90;;;;;;5127353;27;20625;-70
2023/04/08 04:21:57;;;;;;;28.13;23.15;;;8.50;99.90;;;;;;5129000;27;20458;-70
2023/04/08 04:24:24;;;;;;;32.80;23.98;;;8.40;99.90;;;;;;5128462;27;20410;-69
2023/04/08 04:26:51;;;;;;;31.02;24.98;;;8.40;99.90;;;;;;5128005;27;20430;-69
2023/04/08 04:29:17;;;;;;;30.60;23.75;;;8.50;99.90;;;;;;5128935;27;20522;-72
2023/04/08 04:31:44;;;;;;;30.88;24.48;;;8.40;99.90;;;;;;5128797;27;20830;-70
2023/04/08 04:34:12;;;;;;;31.50;25.40;;;8.40;99.90;;;;;;5128760;27;20426;-70
2023/04/08 04:36:39;;;;;;;31.23;25.30;;;8.50;99.90;;;;;;5128502;27;20940;-69
2023/04/08 04:39:06;;;;;;;31.83;25.52;;;8.50;99.90;;;;;;5129113;27;20896;-70
2023/04/08 04:41:34;;;;;;;33.83;26.20;;;8.50;99.90;;;;;;5127641;27;20430;-70
2023/04/08 04:44:01;;;;;;;35.42;26.80;;;8.50;99.90;;;;;;5127588;27;20406;-70
2023/04/08 04:46:27;;;;;;;35.30;25.95;;;8.50;99.90;;;;;;5128687;27;20502;-69
2023/04/08 04:48:54;;;;;;;36.15;26.55;;;8.50;99.90;;;;;;5128878;27;20430;-70
2023/04/08 04:51:22;;;;;;;32.92;26.20;;;8.50;99.90;;;;;;5121920;27;20441;-70
2023/04/08 04:53:49;;;;;;;35.60;26.73;;;8.50;99.90;;;;;;5128041;27;20422;-70
2023/04/08 04:56:16;;;;;;;36.50;26.90;;;8.50;99.90;;;;;;5124252;27;20432;-70
2023/04/08 04:58:42;;;;;;;34.63;26.35;;;8.50;99.90;;;;;;5124847;27;20895;-69
2023/04/08 05:01:09;;;;;;;36.17;27.23;;;8.50;99.90;;;;;;5122410;27;20422;-68
2023/04/08 05:03:36;;;;;;;36.38;26.33;;;8.40;99.90;;;;;;5125598;27;20796;-68
2023/04/08 05:06:02;;;;;;;33.20;27.30;;;8.40;99.90;;;;;;5124480;27;20426;-68
2023/04/08 05:08:30;;;;;;;35.70;26.90;;;8.40;99.90;;;;;;5126629;27;20434;-69
2023/04/08 05:11:00;;;;;;;36.40;26.65;;;8.40;99.90;;;;;;5124439;27;20450;-68
2023/04/08 05:13:27;;;;;;;32.15;26.13;;;8.40;99.90;;;;;;5126522;27;20643;-68
2023/04/08 05:15:54;;;;;;;30.20;24.53;;;8.50;99.90;;;;;;5124198;27;20433;-69
2023/04/08 05:18:21;;;;;;;32.00;25.23;;;8.50;99.90;;;;;;5128456;27;20421;-69
2023/04/08 05:20:47;;;;;;;30.20;24.77;;;8.50;99.90;;;;;;5128066;27;20434;-69
2023/04/08 05:23:14;;;;;;;33.35;25.13;;;8.50;99.90;;;;;;5127120;27;20433;-68
2023/04/08 05:25:42;;;;;;;32.10;25.13;;;8.50;99.90;;;;;;5122450;27;20430;-69
2023/04/08 05:28:09;;;;;;;28.48;22.80;;;8.50;99.90;;;;;;5131395;27;20411;-63
2023/04/08 05:30:36;;;;;;;31.27;24.23;;;8.50;99.90;;;;;;5127271;27;20423;-68
2023/04/08 05:33:03;;;;;;;30.38;24.90;;;8.60;99.90;;;;;;5126378;27;20419;-68
2023/04/08 05:35:29;;;;;;;30.98;24.52;;;8.60;99.90;;;;;;5127631;27;20905;-68
2023/04/08 05:37:56;;;;;;;32.15;25.00;;;8.60;99.90;;;;;;5127873;27;20414;-68
2023/04/08 05:40:23;;;;;;;28.40;24.00;;;8.60;99.90;;;;;;5125563;27;20472;-68
2023/04/08 05:42:51;;;;;;;31.08;24.92;;;8.60;99.90;;;;;;5122545;27;20422;-70
2023/04/08 05:45:18;;;;;;;30.23;24.77;;;8.70;99.90;;;;;;5125549;27;20931;-69
2023/04/08 05:47:44;;;;;;;27.20;24.30;;;8.70;99.90;;;;;;5125288;27;20482;-70
2023/04/08 05:50:11;;;;;;;29.42;24.80;;;8.70;99.90;;;;;;5115861;27;20835;-70
2023/04/08 05:52:42;;;;;;;31.30;26.05;;;8.70;99.90;;;;;;5126447;27;20729;-70
2023/04/08 05:55:09;;;;;;;27.73;24.73;;;8.80;99.90;;;;;;5123287;27;20447;-71
2023/04/08 05:57:36;;;;;;;29.88;25.38;;;8.80;99.90;;;;;;5127600;27;20414;-67
2023/04/08 06:00:05;;;;;;;28.92;24.63;;;8.80;99.90;;;;;;5126683;27;20784;-69
2023/04/08 06:02:34;;;;;;;27.92;24.67;;;8.80;99.90;;;;;;5124855;27;20537;-71
2023/04/08 06:05:01;;;;;;;30.35;26.70;;;8.80;99.90;;;;;;5130141;22;20490;-70
2023/04/08 06:07:28;;;;;;;30.15;26.50;;;8.80;99.90;;;;;;5093641;28;20424;-69
2023/04/08 06:09:55;;;;;;;29.10;25.88;;;8.80;99.90;;;;;;5113935;28;20440;-69
2023/04/08 06:12:21;;;;;;;33.85;26.45;;;8.80;99.90;;;;;;5104198;28;20501;-69
2023/04/08 06:14:48;;;;;;;33.38;26.52;;;8.70;99.90;;;;;;5105507;28;20496;-69
2023/04/08 06:17:16;;;;;;;30.27;25.60;;;8.70;99.90;;;;;;5086984;28;20450;-70
2023/04/08 06:19:43;;;;;;;32.57;26.97;;;8.70;99.90;;;;;;5088401;28;20425;-71
2023/04/08 06:22:10;;;;;;;31.38;25.65;;;8.70;99.90;;;;;;5088856;28;20430;-70
2023/04/08 06:24:36;;;;;;;31.65;26.05;;;8.60;99.90;;;;;;5082191;28;20433;-71
2023/04/08 06:27:03;;;;;;;30.90;27.15;;;8.60;99.90;;;;;;5093708;28;20432;-69
2023/04/08 06:29:30;;;;;;;32.53;27.70;;;8.60;99.90;;;;;;5088164;28;20408;-75
2023/04/08 06:31:57;;;;;;;33.20;27.25;;;8.70;99.90;;;;;;5089131;28;20540;-69
2023/04/08 06:34:25;;;;;;;28.77;24.58;;;8.70;99.90;;;;;;5068835;28;20435;-70
2023/04/08 06:36:51;;;;;;;30.02;25.60;;;8.70;99.90;;;;;;5067105;28;20543;-68
2023/04/08 06:39:20;;;;;;;26.00;23.20;;;8.80;99.90;;;;;;5080149;28;20489;-70
2023/04/08 06:41:47;;;;;;;26.08;23.05;;;8.80;99.90;;;;;;5083167;28;20524;-69
2023/04/08 06:44:13;;;;;;;25.60;22.90;;;8.80;99.90;;;;;;5078105;28;20942;-71
2023/04/08 06:46:40;;;;;;;25.70;22.90;;;8.90;99.90;;;;;;5081404;28;20429;-71
2023/04/08 06:49:07;;;;;;;25.02;22.33;;;8.90;99.90;;;;;;5073069;28;20439;-71
2023/04/08 06:51:35;;;;;;;25.65;22.70;;;8.90;99.90;;;;;;5078696;28;20432;-68
2023/04/08 06:54:02;;;;;;;24.02;21.10;;;9.00;99.90;;;;;;5082361;28;20510;-70
2023/04/08 06:56:28;;;;;;;25.00;22.00;;;9.10;99.90;;;;;;5084794;28;20432;-70
2023/04/08 06:58:55;;;;;;;25.27;22.15;;;9.20;99.90;;;;;;5086823;28;20422;-71
2023/04/08 07:01:22;;;;;;;24.88;22.35;;;9.20;99.90;;;;;;5086476;28;20422;-70
2023/04/08 07:03:49;;;;;;;24.90;22.30;;;9.20;99.90;;;;;;5086841;28;20502;-73
2023/04/08 07:06:16;;;;;;;25.60;22.98;;;9.20;99.90;;;;;;5073046;28;20422;-70
2023/04/08 07:08:44;;;;;;;26.63;23.83;;;9.30;99.90;;;;;;5077121;28;20969;-70
2023/04/08 07:11:11;;;;;;;26.15;23.35;;;9.40;99.90;;;;;;5078573;28;20431;-70
2023/04/08 07:13:38;;;;;;;28.00;25.00;;;9.50;99.90;;;;;;5071155;28;20433;-70
2023/04/08 07:16:06;;;;;;;26.83;23.92;;;9.60;99.90;;;;;;5079484;28;20433;-70
2023/04/08 07:18:32;;;;;;;27.40;24.42;;;9.60;99.90;;;;;;5089551;28;20429;-70
2023/04/08 07:20:59;;;;;;;25.10;22.50;;;9.70;99.90;;;;;;5096234;28;20433;-70
2023/04/08 07:23:27;;;;;;;26.55;23.75;;;9.70;99.90;;;;;;5086051;28;20524;-70
2023/04/08 07:25:55;;;;;;;28.10;25.30;;;9.80;99.90;;;;;;5091434;28;20928;-70
2023/04/08 07:28:21;;;;;;;27.65;24.85;;;9.90;99.90;;;;;;5081384;28;20426;-70
2023/04/08 07:30:48;;;;;;;29.17;26.17;;;9.90;99.90;;;;;;5082820;28;20460;-70
2023/04/08 07:33:15;;;;;;;30.67;27.48;;;9.90;99.90;;;;;;5082140;28;20436;-69
2023/04/08 07:35:42;;;;;;;31.07;27.67;;;9.90;99.90;;;;;;5084847;28;20594;-68
2023/04/08 07:38:10;;;;;;;31.20;27.80;;;9.90;99.90;;;;;;5085157;28;20430;-70
2023/04/08 07:40:37;;;;;;;32.15;28.75;;;10.00;99.90;;;;;;5087886;28;20418;-69
2023/04/08 07:43:05;;;;;;;30.25;27.15;;;10.00;99.90;;;;;;5072461;28;20911;-70
2023/04/08 07:45:31;;;;;;;31.63;28.33;;;10.00;99.90;;;;;;5074646;28;20417;-69
2023/04/08 07:47:58;;;;;;;28.88;25.88;;;10.10;99.90;;;;;;5080178;28;20434;-68
2023/04/08 07:50:25;;;;;;;29.90;26.90;;;10.30;99.90;;;;;;5083721;28;20429;-70
2023/04/08 07:52:52;;;;;;;30.05;27.05;;;10.50;99.90;;;;;;5082420;28;20437;-70
2023/04/08 07:55:19;;;;;;;29.98;26.98;;;10.70;99.90;;;;;;5077653;28;20780;-71
2023/04/08 07:57:46;;;;;;;30.10;26.98;;;10.80;99.90;;;;;;5085184;28;20514;-71
2023/04/08 08:00:19;;;;;;;30.33;27.13;;;11.00;99.90;;;;;;5092660;28;20431;-71
2023/04/08 08:02:46;;;;;;;31.23;28.03;;;11.00;99.90;;;;;;5091322;28;20447;-71
2023/04/08 08:05:13;;;;;;;31.35;28.13;;;11.00;99.90;;;;;;5091079;28;20446;-71
2023/04/08 08:07:40;;;;;;;30.80;27.60;;;10.90;99.90;;;;;;5097631;28;20433;-72
2023/04/08 08:10:09;;;;;;;30.90;27.70;;;10.90;99.90;;;;;;5099162;28;20440;-72
2023/04/08 08:12:36;;;;;;;31.50;28.33;;;10.90;99.90;;;;;;5095119;28;20441;-71
2023/04/08 08:15:02;;;;;;;31.47;28.23;;;10.90;99.90;;;;;;5094121;28;20449;-71
2023/04/08 08:17:32;;;;;;;31.77;28.48;;;10.90;99.90;;;;;;5082628;28;20912;-71
2023/04/08 08:19:59;;;;;;;32.53;29.35;;;10.90;99.60;;;;;;5092104;28;20427;-70
2023/04/08 08:22:26;;;;;;;31.73;28.67;;;10.80;99.90;;;;;;5084067;28;20467;-71
2023/04/08 08:24:56;;;;;;;31.73;28.67;;;10.80;99.90;;;;;;5098273;28;20466;-71
2023/04/08 08:27:23;;;;;;;33.67;30.40;;;10.80;99.90;;;;;;5096651;28;20495;-71
2023/04/08 08:29:50;;;;;;;33.03;29.77;;;10.80;99.80;;;;;;5087200;28;20500;-71
2023/04/08 08:32:17;;;;;;;32.47;29.17;;;10.70;99.90;;;;;;5083122;28;20460;-71
2023/04/08 08:34:45;;;;;;;31.85;28.75;;;10.80;99.90;;;;;;5084160;28;20432;-71
2023/04/08 08:37:11;;;;;;;32.17;29.07;;;10.80;99.90;;;;;;5083248;28;20795;-71
2023/04/08 08:39:38;;;;;;;30.73;27.83;;;10.90;99.90;;;;;;5079803;28;20430;-71
2023/04/08 08:42:05;;;;;;;29.40;26.50;;;11.00;99.90;;;;;;5085074;28;20447;-71
2023/04/08 08:44:31;;;;;;;30.70;27.80;;;11.10;99.90;;;;;;5085120;28;20494;-71
2023/04/08 08:46:58;;;;;;;29.85;26.98;;;11.20;99.90;;;;;;5085229;28;20416;-71
2023/04/08 08:49:25;;;;;;;29.10;26.40;;;11.20;99.20;;;;;;5084495;28;20733;-71
2023/04/08 08:51:54;;;;;;;28.63;25.83;;;11.30;99.40;;;;;;5083300;28;20517;-71
2023/04/08 08:54:21;;;;;;;28.83;26.05;;;11.30;99.40;;;;;;5077628;28;20929;-71
2023/04/08 08:56:48;;;;;;;28.33;25.73;;;11.30;99.10;;;;;;5079191;28;20469;-71
2023/04/08 08:59:15;;;;;;;28.10;25.40;;;11.40;99.40;;;;;;5080588;28;20441;-69
2023/04/08 09:01:42;;;;;;;28.85;26.15;;;11.50;99.30;;;;;;5086784;28;20441;-69
2023/04/08 09:04:15;;;;;;;27.20;24.50;;;11.70;98.80;;;;;;5090921;28;20485;-69
2023/04/08 09:06:42;;;;;;;27.40;24.90;;;11.80;98.30;;;;;;5089355;28;20428;-70
2023/04/08 09:09:11;;;;;;;26.52;24.00;;;12.10;98.40;;;;;;5086626;28;20430;-69
2023/04/08 09:11:39;;;;;;;27.50;24.90;;;12.20;97.20;;;;;;5083777;28;20421;-69
2023/04/08 09:14:16;;;;;;;27.40;24.80;;;12.30;96.60;;;;;;5070169;28;20502;-75
2023/04/08 09:16:43;;;;;;;26.50;23.90;;;12.30;96.30;;;;;;5083270;28;20899;-70
2023/04/08 09:19:11;;;;;;;26.50;24.00;;;12.30;96.10;;;;;;5082176;28;20865;-67
2023/04/08 09:21:40;;;;;;;28.00;25.30;;;12.20;96.10;;;;;;5081377;28;20457;-67
2023/04/08 09:24:07;;;;;;;27.20;24.50;;;12.20;96.20;;;;;;5083513;28;20575;-69
2023/04/08 09:26:36;;;;;;;28.50;25.60;;;12.10;96.10;;;;;;5082655;28;20426;-68
2023/04/08 09:29:04;;;;;;;28.40;25.63;;;12.10;95.60;;;;;;5082871;28;20513;-69
2023/04/08 09:31:32;;;;;;;26.80;24.30;;;12.00;95.60;;;;;;5082169;28;20444;-67
2023/04/08 09:34:01;;;;;;;27.60;24.90;;;12.10;95.80;;;;;;5083092;28;20417;-68
2023/04/08 09:36:28;;;;;;;27.85;25.05;;;12.10;95.60;;;;;;5089889;28;20451;-69
2023/04/08 09:38:55;;;;;;;28.92;26.02;;;12.20;95.80;;;;;;5080646;28;20836;-67
2023/04/08 09:41:23;;;;;;;28.10;25.35;;;12.20;95.30;;;;;;5085434;28;20524;-69
2023/04/08 09:43:54;;;;;;;29.88;26.98;;;12.30;95.00;;;;;;5081924;28;20801;-69
2023/04/08 09:46:26;;;;;;;31.07;27.87;;;12.30;93.70;;;;;;5082160;28;20432;-67
2023/04/08 09:49:01;;;;;;;29.95;26.95;;;12.30;93.90;;;;;;5082016;28;20566;-69
2023/04/08 09:51:32;;;;;;;31.13;27.92;;;12.30;94.10;;;;;;5083637;28;20502;-69
2023/04/08 09:54:02;;;;;;;33.15;29.75;;;12.40;93.00;;;;;;5073484;28;20914;-68
2023/04/08 09:56:38;;;;;;;32.85;29.35;;;12.60;93.50;;;;;;5076260;28;20432;-67
2023/04/08 09:59:11;;;;;;;37.08;33.08;;;12.90;92.50;;;;;;5064117;28;20438;-68
2023/04/08 10:01:39;;;;;;;37.83;32.50;;;13.10;92.30;;;;;;5079208;28;20453;-68
2023/04/08 10:04:12;;;;;;;39.20;35.03;;;13.30;90.90;;;;;;5069730;28;20434;-68
2023/04/08 10:06:39;;;;;;;38.17;33.33;;;13.40;90.90;;;;;;5073567;28;20440;-67
2023/04/08 10:09:06;;;;;;;36.80;32.80;;;13.60;90.90;;;;;;5071721;28;20433;-70
2023/04/08 10:11:35;;;;;;;36.23;32.43;;;13.70;88.00;;;;;;5071159;28;20591;-69
2023/04/08 10:14:02;;;;;;;35.85;32.22;;;13.60;87.30;;;;;;5068851;28;20479;-70
2023/04/08 10:16:30;;;;;;;35.97;32.05;;;13.70;87.20;;;;;;5078735;28;20433;-69
2023/04/08 10:18:57;;;;;;;33.22;29.83;;;13.80;85.70;;;;;;5075268;28;20418;-68
2023/04/08 10:21:42;;;;;;;31.45;28.25;;;13.80;85.90;;;;;;5074163;28;20425;-68
2023/04/08 10:24:09;;;;;;;33.50;30.20;;;13.90;86.30;;;;;;5071401;28;20783;-68
2023/04/08 10:26:38;;;;;;;32.00;28.98;;;14.10;83.00;;;;;;5070825;28;21781;-68
2023/04/08 10:29:32;;;;;;;30.23;27.42;;;14.10;83.10;;;;;;5067003;28;20955;-67
2023/04/08 10:32:01;;;;;;;28.65;26.15;;;13.90;83.00;;;;;;5084336;28;20429;-70
2023/04/08 10:34:29;;;;;;;28.80;26.10;;;13.70;84.60;;;;;;5082117;28;20970;-68
2023/04/08 10:37:00;;;;;;;29.77;27.08;;;13.70;86.20;;;;;;5082111;28;20425;-68
2023/04/08 10:39:27;;;;;;;30.33;27.42;;;13.70;85.80;;;;;;5083295;28;20426;-68
2023/04/08 10:41:54;;;;;;;28.95;26.33;;;13.70;87.60;;;;;;5078438;28;20878;-67
2023/04/08 10:44:23;;;;;;;29.35;26.75;;;13.80;86.40;;;;;;5077889;28;20455;-70
2023/04/08 10:46:50;;;;;;;29.40;26.85;;;13.90;85.50;;;;;;5083723;28;20426;-70
2023/04/08 10:49:20;;;;;;;28.65;26.15;;;13.90;85.20;;;;;;5084853;28;20481;-68
2023/04/08 10:51:47;;;;;;;26.37;24.10;;;14.00;84.60;;;;;;5084592;28;20445;-70
2023/04/08 10:54:16;;;;;;;26.80;24.40;;;14.10;82.60;;;;;;5074085;28;20457;-70
2023/04/08 10:56:45;;;;;;;25.33;23.05;;;14.30;80.30;;;;;;5079822;28;20438;-68
2023/04/08 10:59:15;;;;;;;25.88;23.58;;;14.30;80.90;;;;;;5080138;28;20499;-70
2023/04/08 11:01:43;;;;;;;26.92;24.23;;;14.40;79.50;;;;;;5085506;28;20461;-70
2023/04/08 11:04:14;;;;;;;27.35;24.95;;;14.40;78.10;;;;;;5092926;28;20478;-69
2023/04/08 11:06:45;;;;;;;27.85;25.25;;;14.40;77.50;;;;;;5086591;28;20892;-69
2023/04/08 11:09:12;;;;;;;28.70;26.20;;;14.40;77.80;;;;;;5087808;28;20468;-70
2023/04/08 11:11:42;;;;;;;27.05;24.65;;;14.50;78.90;;;;;;5088643;28;20456;-68
2023/04/08 11:14:08;;;;;;;26.50;24.27;;;14.60;76.00;;;;;;5083865;28;20425;-69
2023/04/08 11:16:36;;;;;;;27.00;24.50;;;14.60;74.30;;;;;;5086174;28;20872;-68
2023/04/08 11:19:05;;;;;;;28.70;25.80;;;14.60;74.90;;;;;;5087660;28;20425;-68
2023/04/08 11:21:32;;;;;;;27.88;25.27;;;14.60;73.50;;;;;;5086745;28;20865;-69
2023/04/08 11:24:00;;;;;;;27.95;25.35;;;14.70;72.40;;;;;;5084585;28;20743;-68
2023/04/08 11:26:27;;;;;;;26.73;24.23;;;14.70;72.80;;;;;;5088214;28;20430;-69
2023/04/08 11:28:56;;;;;;;28.30;25.50;;;14.70;71.30;;;;;;5089643;28;20714;-69
2023/04/08 11:31:23;;;;;;;26.80;24.20;;;14.80;74.10;;;;;;5086281;28;21680;-68
2023/04/08 11:33:53;;;;;;;28.20;25.50;;;14.90;73.10;;;;;;5085410;28;20891;-68
2023/04/08 11:36:20;;;;;;;27.23;24.67;;;15.00;73.50;;;;;;5086818;28;20418;-68
2023/04/08 11:38:47;;;;;;;28.48;25.67;;;15.10;72.70;;;;;;5090580;28;20429;-68
2023/04/08 11:41:16;;;;;;;28.30;25.20;;;15.10;69.30;;;;;;5088354;28;20717;-69
2023/04/08 11:43:56;;;;;;;29.07;26.07;;;14.90;69.50;;;;;;5087742;28;20487;-70
2023/04/08 11:46:23;;;;;;;27.95;25.08;;;14.70;71.90;;;;;;5084257;28;20589;-70
2023/04/08 11:49:05;;;;;;;27.50;24.90;;;14.60;73.10;;;;;;5092669;28;20405;-68
2023/04/08 11:51:33;;;;;;;27.75;24.95;;;14.40;72.70;;;;;;5082392;28;20476;-70
2023/04/08 11:54:00;;;;;;;28.77;25.77;;;14.20;73.80;;;;;;5085506;28;20438;-71
2023/04/08 11:56:32;;;;;;;27.63;24.73;;;14.10;76.10;;;;;;5084635;28;20891;-68
2023/04/08 11:58:59;;;;;;;29.38;26.17;;;14.10;75.70;;;;;;5087012;28;20468;-71
2023/04/08 12:01:26;;;;;;;28.83;25.73;;;14.10;75.50;;;;;;5085691;28;20421;-70
2023/04/08 12:03:58;;;;;;;29.65;26.45;;;14.10;74.90;;;;;;5084210;28;20964;-70
2023/04/08 12:06:26;;;;;;;29.00;26.00;;;14.10;76.10;;;;;;5106041;22;20943;-66
2023/04/08 12:08:53;;;;;;;28.48;25.58;;;14.00;75.40;;;;;;5088351;28;20418;-66
2023/04/08 12:11:20;;;;;;;30.20;27.00;;;13.90;76.10;;;;;;5091732;28;20540;-67
2023/04/08 12:13:49;;;;;;;29.83;26.83;;;13.90;75.50;;;;;;5083557;28;20833;-66
2023/04/08 12:16:17;;;;;;;27.42;24.52;;;13.90;75.90;;;;;;5080501;28;20430;-66
2023/04/08 12:18:43;;;;;;;28.85;25.58;;;13.80;76.40;;;;;;5093290;28;21066;-67
2023/04/08 12:21:10;;;;;;;27.17;24.48;;;13.80;76.40;;;;;;5083436;28;20456;-67
2023/04/08 12:23:37;;;;;;;28.10;25.23;;;13.70;77.20;;;;;;5080343;28;20435;-66
2023/04/08 12:26:04;;;;;;;26.27;23.58;;;13.70;77.20;;;;;;5085475;28;20513;-66
2023/04/08 12:28:30;;;;;;;26.60;23.80;;;13.60;76.00;;;;;;5077318;28;20412;-67
2023/04/08 12:30:58;;;;;;;27.45;24.65;;;13.60;77.10;;;;;;5077691;28;20436;-67
2023/04/08 12:33:25;;;;;;;27.37;24.57;;;13.60;76.80;;;;;;5087238;28;20524;-67
2023/04/08 12:35:52;;;;;;;28.23;25.33;;;13.50;76.60;;;;;;5083463;28;20506;-67